Tannersville, New York
Current Conditions -  °F | °C
As of 1:53 AM on Saturday 25 Oct 2014 (Local Time) from KPOU Reporting Station
Clear Clear  
Wind Chill:   Ceiling: Unl
Heat Index:   Visibility: 10mi
Dew Point:   Wind: 0mph
Humidity: 93%   Direction: NA
Pressure: 29.86"   Gusts: NA
Location:  42.2°N, 74.13°W
Report Text: KPOU 250553Z AUTO 00000KT 10SM CLR 04/03 A2986 RMK AO2 SLP107 T00440033 10106 20039 53000 TSNO
Loading
Personal Weather Stations






























Interactive Weather Map
Tropical Storm Tracking
New forecast layout! Learn more

10-Day Weather Forecast

Advertisements
Track Severe Weather on mobile